Time;durP1;ratioP1;P1;durP2;ratioP2;P2;SDS_P1;SDS_P2;PMS_P1;PMS_P2;Temp;Humidity;BMP_temperature;BMP_pressure;BME280_temperature;BME280_humidity;BME280_pressure;Samples;Min_cycle;Max_cycle;Signal;HPM_P1;HPM_P2
2022/01/20 00:01:16;;;;;;;;;;;;;;;;;;5015828;28;20326;-55
2022/01/20 00:03:43;;;;;;;;;;;;;;;;;;5014693;28;20008;-54
2022/01/20 00:09:35;;;;;;;;;;;;;;;;;;5019224;28;19961;-53
2022/01/20 00:26:02;;;;;;;;;;;;;;;;;;5020695;28;19945;-55
2022/01/20 00:28:51;;;;;;;;;;;;;;;;;;5021052;28;20055;-56
2022/01/20 00:33:57;;;;;;;;;;;;;;;;;;5019483;28;20436;-56
2022/01/20 00:39:00;;;;;;;;;;;;;;;;;;5020153;28;19935;-55
2022/01/20 00:41:26;;;;;;;;;;;;;;;;;;5020080;28;19925;-54
2022/01/20 00:43:51;;;;;;;;;;;;;;;;;;5021870;28;19921;-55
2022/01/20 00:46:17;;;;;;;;;;;;;;;;;;5021385;28;20039;-53
2022/01/20 00:48:42;;;;;;;;;;;;;;;;;;5019991;28;19927;-54
2022/01/20 00:51:08;;;;;;;;;;;;;;;;;;5020759;28;19928;-52
2022/01/20 00:53:34;;;;;;;;;;;;;;;;;;5019813;28;20008;-54
2022/01/20 00:55:59;;;;;;;;;;;;;;;;;;5021765;28;19926;-55
2022/01/20 00:58:25;;;;;;;;;;;;;;;;;;5021102;28;20012;-54
2022/01/20 01:00:50;;;;;;;;;;;;;;;;;;5022634;28;19941;-54
2022/01/20 01:03:16;;;;;;;;;;;;;;;;;;5021093;28;20008;-53
2022/01/20 01:05:57;;;;;;;;;;;;;;;;;;5021604;28;19924;-56
2022/01/20 01:08:22;;;;;;;;;;;;;;;;;;5022313;28;19932;-54
2022/01/20 01:10:50;;;;;;;;;;;;;;;;;;5023853;28;19921;-54
2022/01/20 01:13:17;;;;;;;;;;;;;;;;;;5032243;28;20311;-56
2022/01/20 01:15:46;;;;;;;;;;;;;;;;;;5023114;28;19953;-55
2022/01/20 01:23:24;;;;;;;;;;;;;;;;;;5021156;28;20048;-53
2022/01/20 01:25:49;;;;;;;;;;;;;;;;;;5022845;28;20020;-55
2022/01/20 01:28:16;;;;;;;;;;;;;;;;;;5022630;28;20416;-55
2022/01/20 01:31:14;;;;;;;;;;;;;;;;;;5021258;28;20349;-53
2022/01/20 01:33:29;;;;;;;;;;;;;;;;;;5021718;28;19929;-52
2022/01/20 01:35:58;;;;;;;;;;;;;;;;;;5023155;28;19928;-53
2022/01/20 01:38:47;;;;;;;;;;;;;;;;;;5020420;28;19933;-55
2022/01/20 01:41:11;;;;;;;;;;;;;;;;;;5021916;28;19921;-54
2022/01/20 01:43:38;;;;;;;;;;;;;;;;;;5017847;28;20477;-54
2022/01/20 01:46:04;;;;;;;;;;;;;;;;;;5019947;28;20385;-55
2022/01/20 01:48:29;;;;;;;;;;;;;;;;;;5018798;28;19956;-53
2022/01/20 01:50:55;;;;;;;;;;;;;;;;;;5013395;28;19924;-51
2022/01/20 01:53:20;;;;;;;;;;;;;;;;;;5016936;28;19967;-55
2022/01/20 01:55:46;;;;;;;;;;;;;;;;;;5018985;28;20357;-56
2022/01/20 01:58:11;;;;;;;;;;;;;;;;;;5019900;28;19929;-54
2022/01/20 02:00:37;;;;;;;;;;;;;;;;;;5020489;28;19933;-53
2022/01/20 02:03:02;;;;;;;;;;;;;;;;;;5019719;28;20329;-55
2022/01/20 02:05:29;;;;;;;;;;;;;;;;;;5018788;28;20432;-55
2022/01/20 02:19:00;;;;;;;;;;;;;;;;;;5020136;28;19982;-54
2022/01/20 02:21:26;;;;;;;;;;;;;;;;;;5016877;28;20652;-56
2022/01/20 02:23:51;;;;;;;;;;;;;;;;;;5017956;28;19975;-57
2022/01/20 02:26:17;;;;;;;;;;;;;;;;;;5018698;28;19925;-55
2022/01/20 02:28:42;;;;;;;;;;;;;;;;;;5017569;28;19921;-54
2022/01/20 02:31:07;;;;;;;;;;;;;;;;;;5018923;28;19952;-56
2022/01/20 02:33:33;;;;;;;;;;;;;;;;;;5016873;28;20358;-54
2022/01/20 02:35:59;;;;;;;;;;;;;;;;;;5019444;28;19929;-55
2022/01/20 02:38:33;;;;;;;;;;;;;;;;;;5019052;28;19929;-53
2022/01/20 02:46:26;;;;;;;;;;;;;;;;;;5018127;28;19927;-54
2022/01/20 02:48:51;;;;;;;;;;;;;;;;;;5019099;28;19925;-53
2022/01/20 02:51:17;;;;;;;;;;;;;;;;;;5017757;28;20063;-53
2022/01/20 02:53:42;;;;;;;;;;;;;;;;;;5018364;28;19962;-56
2022/01/20 02:56:07;;;;;;;;;;;;;;;;;;5018161;28;20374;-56
2022/01/20 02:58:33;;;;;;;;;;;;;;;;;;5018466;28;20354;-54
2022/01/20 03:00:58;;;;;;;;;;;;;;;;;;5017993;28;19991;-56
2022/01/20 03:03:24;;;;;;;;;;;;;;;;;;5016190;28;19983;-54
2022/01/20 03:05:49;;;;;;;;;;;;;;;;;;5017757;28;20422;-55
2022/01/20 03:08:15;;;;;;;;;;;;;;;;;;5017966;28;19921;-54
2022/01/20 03:10:40;;;;;;;;;;;;;;;;;;5014497;28;20390;-57
2022/01/20 03:13:06;;;;;;;;;;;;;;;;;;5016548;28;20838;-56
2022/01/20 03:15:34;;;;;;;;;;;;;;;;;;5016091;28;19932;-54
2022/01/20 03:17:59;;;;;;;;;;;;;;;;;;5017447;28;19998;-56
2022/01/20 03:20:25;;;;;;;;;;;;;;;;;;5017283;28;20374;-57
2022/01/20 03:22:50;;;;;;;;;;;;;;;;;;5017233;28;19928;-56
2022/01/20 03:25:16;;;;;;;;;;;;;;;;;;5019277;28;19922;-57
2022/01/20 03:27:41;;;;;;;;;;;;;;;;;;5017505;28;20414;-55
2022/01/20 03:30:07;;;;;;;;;;;;;;;;;;5018615;28;19921;-55
2022/01/20 03:32:35;;;;;;;;;;;;;;;;;;5015950;28;20197;-54
2022/01/20 03:35:01;;;;;;;;;;;;;;;;;;5018320;28;20004;-55
2022/01/20 03:37:26;;;;;;;;;;;;;;;;;;5016963;28;19956;-55
2022/01/20 03:39:52;;;;;;;;;;;;;;;;;;5017725;28;20063;-54
2022/01/20 03:42:17;;;;;;;;;;;;;;;;;;5017448;28;20004;-56
2022/01/20 03:44:43;;;;;;;;;;;;;;;;;;5018474;28;19979;-56
2022/01/20 03:47:09;;;;;;;;;;;;;;;;;;5025271;28;19953;-57
2022/01/20 03:52:03;;;;;;;;;;;;;;;;;;5016164;28;19925;-57
2022/01/20 03:54:28;;;;;;;;;;;;;;;;;;5016419;28;19928;-57
2022/01/20 03:56:53;;;;;;;;;;;;;;;;;;5017212;28;19951;-56
2022/01/20 03:59:19;;;;;;;;;;;;;;;;;;5016447;28;20309;-58
2022/01/20 04:01:45;;;;;;;;;;;;;;;;;;5017099;28;20818;-56
2022/01/20 04:04:10;;;;;;;;;;;;;;;;;;5018133;28;20408;-54
2022/01/20 04:06:36;;;;;;;;;;;;;;;;;;5016106;28;19931;-56
2022/01/20 04:09:01;;;;;;;;;;;;;;;;;;5017328;28;19925;-55
2022/01/20 04:11:27;;;;;;;;;;;;;;;;;;5016666;28;20023;-57
2022/01/20 04:13:52;;;;;;;;;;;;;;;;;;5017545;28;20019;-57
2022/01/20 04:16:19;;;;;;;;;;;;;;;;;;5016156;28;20278;-58
2022/01/20 04:18:52;;;;;;;;;;;;;;;;;;5017295;28;19929;-57
2022/01/20 04:21:18;;;;;;;;;;;;;;;;;;5015966;28;20032;-56
2022/01/20 04:23:43;;;;;;;;;;;;;;;;;;5017252;28;19943;-57
2022/01/20 04:26:09;;;;;;;;;;;;;;;;;;5016803;28;19921;-55
2022/01/20 04:28:34;;;;;;;;;;;;;;;;;;5015388;28;20911;-56
2022/01/20 04:30:59;;;;;;;;;;;;;;;;;;5017469;28;19921;-56
2022/01/20 04:33:25;;;;;;;;;;;;;;;;;;5016035;28;19947;-57
2022/01/20 04:35:50;;;;;;;;;;;;;;;;;;5017727;28;20350;-57
2022/01/20 04:38:16;;;;;;;;;;;;;;;;;;5016069;28;20358;-54
2022/01/20 04:40:43;;;;;;;;;;;;;;;;;;5015687;28;20024;-56
2022/01/20 04:43:08;;;;;;;;;;;;;;;;;;5016962;28;20043;-55
2022/01/20 04:45:40;;;;;;;;;;;;;;;;;;5016078;28;20030;-57
2022/01/20 04:48:21;;;;;;;;;;;;;;;;;;5017253;28;19925;-55
2022/01/20 04:58:58;;;;;;;;;;;;;;;;;;5018508;28;19994;-56
2022/01/20 05:01:24;;;;;;;;;;;;;;;;;;5016712;28;19929;-55
2022/01/20 05:03:49;;;;;;;;;;;;;;;;;;5019654;28;19944;-57
2022/01/20 05:06:15;;;;;;;;;;;;;;;;;;5021877;28;19932;-54
2022/01/20 05:08:40;;;;;;;;;;;;;;;;;;5020831;28;19921;-56
2022/01/20 05:11:06;;;;;;;;;;;;;;;;;;5022316;28;19928;-57
2022/01/20 05:13:37;;;;;;;;;;;;;;;;;;5023783;28;19943;-57
2022/01/20 05:16:03;;;;;;;;;;;;;;;;;;5025456;28;20020;-57
2022/01/20 05:18:28;;;;;;;;;;;;;;;;;;5027336;28;20055;-56
2022/01/20 05:20:53;;;;;;;;;;;;;;;;;;5027476;28;19944;-58
2022/01/20 05:23:19;;;;;;;;;;;;;;;;;;5027104;28;19925;-57
2022/01/20 05:25:44;;;;;;;;;;;;;;;;;;5031058;28;20388;-58
2022/01/20 05:28:10;;;;;;;;;;;;;;;;;;5031628;28;19976;-57
2022/01/20 05:30:35;;;;;;;;;;;;;;;;;;5030368;28;19920;-58
2022/01/20 05:33:01;;;;;;;;;;;;;;;;;;5026503;28;19917;-55
2022/01/20 05:35:26;;;;;;;;;;;;;;;;;;5020013;28;19947;-54
2022/01/20 05:37:52;;;;;;;;;;;;;;;;;;5021015;28;20586;-55
2022/01/20 05:40:17;;;;;;;;;;;;;;;;;;5019143;28;19978;-57
2022/01/20 05:42:43;;;;;;;;;;;;;;;;;;5001200;28;19922;-57
2022/01/20 05:45:08;;;;;;;;;;;;;;;;;;5000981;28;19917;-58
2022/01/20 05:47:37;;;;;;;;;;;;;;;;;;4999973;28;20096;-57
2022/01/20 05:50:02;;;;;;;;;;;;;;;;;;5006384;28;19936;-57
2022/01/20 05:52:28;;;;;;;;;;;;;;;;;;5001706;28;19921;-55
2022/01/20 05:54:53;;;;;;;;;;;;;;;;;;5000552;28;20022;-56
2022/01/20 05:57:19;;;;;;;;;;;;;;;;;;4999799;28;19972;-58
2022/01/20 05:59:44;;;;;;;;;;;;;;;;;;5002847;28;19940;-57
2022/01/20 06:02:27;;;;;;;;;;;;;;;;;;5001581;28;19922;-57
2022/01/20 06:04:52;;;;;;;;;;;;;;;;;;5014689;28;19932;-58
2022/01/20 06:07:20;;;;;;;;;;;;;;;;;;4999482;28;20693;-57
2022/01/20 06:09:45;;;;;;;;;;;;;;;;;;4998887;28;20281;-57
2022/01/20 06:12:10;;;;;;;;;;;;;;;;;;4999340;28;19921;-57
2022/01/20 06:14:36;;;;;;;;;;;;;;;;;;5016182;28;20012;-57
2022/01/20 06:17:01;;;;;;;;;;;;;;;;;;5000076;28;19922;-57
2022/01/20 06:19:27;;;;;;;;;;;;;;;;;;4999041;28;19987;-58
2022/01/20 06:21:52;;;;;;;;;;;;;;;;;;5007573;28;19968;-57
2022/01/20 06:24:18;;;;;;;;;;;;;;;;;;4997554;28;19968;-57
2022/01/20 06:26:43;;;;;;;;;;;;;;;;;;4999499;28;20019;-55
2022/01/20 06:29:09;;;;;;;;;;;;;;;;;;4999974;28;20709;-54
2022/01/20 06:31:34;;;;;;;;;;;;;;;;;;4990912;28;21869;-56
2022/01/20 06:34:00;;;;;;;;;;;;;;;;;;4999451;28;19944;-56
2022/01/20 06:36:25;;;;;;;;;;;;;;;;;;4998566;28;19925;-56
2022/01/20 06:38:50;;;;;;;;;;;;;;;;;;5012417;28;20401;-54
2022/01/20 06:41:16;;;;;;;;;;;;;;;;;;5000790;28;20025;-57
2022/01/20 06:43:41;;;;;;;;;;;;;;;;;;5016137;28;19965;-55
2022/01/20 06:46:07;;;;;;;;;;;;;;;;;;4999996;28;19928;-57
2022/01/20 06:48:32;;;;;;;;;;;;;;;;;;4997065;28;19933;-57
2022/01/20 06:50:58;;;;;;;;;;;;;;;;;;5003668;28;20306;-56
2022/01/20 06:53:23;;;;;;;;;;;;;;;;;;5011142;28;19997;-57
2022/01/20 06:55:48;;;;;;;;;;;;;;;;;;5006486;28;20469;-55
2022/01/20 06:58:14;;;;;;;;;;;;;;;;;;5000033;28;20433;-57
2022/01/20 07:00:39;;;;;;;;;;;;;;;;;;4999555;28;19988;-56
2022/01/20 07:03:05;;;;;;;;;;;;;;;;;;5000105;28;20318;-57
2022/01/20 07:05:30;;;;;;;;;;;;;;;;;;4998491;28;20549;-56
2022/01/20 07:07:56;;;;;;;;;;;;;;;;;;4999723;28;19922;-57
2022/01/20 07:10:21;;;;;;;;;;;;;;;;;;5000322;28;19926;-57
2022/01/20 07:12:47;;;;;;;;;;;;;;;;;;5003554;28;20016;-56
2022/01/20 07:15:12;;;;;;;;;;;;;;;;;;5011517;28;19925;-56
2022/01/20 07:17:38;;;;;;;;;;;;;;;;;;5001096;28;19929;-54
2022/01/20 07:20:03;;;;;;;;;;;;;;;;;;5002360;28;19921;-57
2022/01/20 07:22:28;;;;;;;;;;;;;;;;;;4999811;28;19933;-54
2022/01/20 07:24:54;;;;;;;;;;;;;;;;;;5002104;28;20275;-57
2022/01/20 07:27:19;;;;;;;;;;;;;;;;;;4999393;28;20297;-57
2022/01/20 07:29:45;;;;;;;;;;;;;;;;;;5004515;28;20330;-58
2022/01/20 07:32:10;;;;;;;;;;;;;;;;;;5003874;28;19930;-57
2022/01/20 07:34:36;;;;;;;;;;;;;;;;;;4998910;28;20282;-57
2022/01/20 07:37:01;;;;;;;;;;;;;;;;;;4999630;28;19949;-58
2022/01/20 07:39:27;;;;;;;;;;;;;;;;;;4996933;28;19929;-58
2022/01/20 07:41:52;;;;;;;;;;;;;;;;;;4997315;28;19926;-56
2022/01/20 07:44:19;;;;;;;;;;;;;;;;;;4997483;28;19976;-58
2022/01/20 07:46:45;;;;;;;;;;;;;;;;;;4997743;28;19922;-55
2022/01/20 07:49:10;;;;;;;;;;;;;;;;;;4998114;28;19921;-58
2022/01/20 07:51:36;;;;;;;;;;;;;;;;;;4999121;28;19945;-58
2022/01/20 07:54:01;;;;;;;;;;;;;;;;;;5004656;28;19921;-58
2022/01/20 07:56:27;;;;;;;;;;;;;;;;;;4998765;28;19952;-58
2022/01/20 07:58:52;;;;;;;;;;;;;;;;;;4998840;28;19984;-58
2022/01/20 08:01:17;;;;;;;;;;;;;;;;;;4997834;28;19926;-58
2022/01/20 08:03:43;;;;;;;;;;;;;;;;;;4999883;28;20270;-57
2022/01/20 08:06:08;;;;;;;;;;;;;;;;;;5016369;28;20435;-58
2022/01/20 08:08:34;;;;;;;;;;;;;;;;;;5017508;28;20466;-58
2022/01/20 08:10:59;;;;;;;;;;;;;;;;;;5017595;28;19971;-56
2022/01/20 08:13:25;;;;;;;;;;;;;;;;;;5017892;28;19990;-57
2022/01/20 08:15:50;;;;;;;;;;;;;;;;;;5018046;28;20571;-57
2022/01/20 08:18:16;;;;;;;;;;;;;;;;;;5017320;28;19933;-59
2022/01/20 08:20:41;;;;;;;;;;;;;;;;;;5017338;28;19968;-54
2022/01/20 08:23:07;;;;;;;;;;;;;;;;;;5016866;28;19987;-57
2022/01/20 08:25:33;;;;;;;;;;;;;;;;;;5017587;28;20397;-56
2022/01/20 08:27:59;;;;;;;;;;;;;;;;;;5017443;28;19932;-54
2022/01/20 08:30:24;;;;;;;;;;;;;;;;;;5016843;28;19921;-57
2022/01/20 08:32:50;;;;;;;;;;;;;;;;;;5015590;28;19925;-56
2022/01/20 08:35:15;;;;;;;;;;;;;;;;;;5018090;28;19928;-55
2022/01/20 08:37:43;;;;;;;;;;;;;;;;;;5016436;28;19940;-56
2022/01/20 08:40:14;;;;;;;;;;;;;;;;;;5019202;28;19925;-56
2022/01/20 08:42:39;;;;;;;;;;;;;;;;;;5020391;28;19921;-54
2022/01/20 08:45:05;;;;;;;;;;;;;;;;;;5022473;28;19932;-56
2022/01/20 08:47:30;;;;;;;;;;;;;;;;;;5020553;28;20350;-54
2022/01/20 08:49:56;;;;;;;;;;;;;;;;;;5022740;28;19960;-57
2022/01/20 08:52:22;;;;;;;;;;;;;;;;;;5021211;28;19921;-57
2022/01/20 08:54:47;;;;;;;;;;;;;;;;;;5022773;28;19925;-57
2022/01/20 08:57:13;;;;;;;;;;;;;;;;;;5021321;28;19921;-57
2022/01/20 08:59:40;;;;;;;;;;;;;;;;;;5021914;28;19929;-56
2022/01/20 09:02:06;;;;;;;;;;;;;;;;;;5023290;28;20284;-54
2022/01/20 09:04:31;;;;;;;;;;;;;;;;;;5023114;28;19944;-56
2022/01/20 09:06:57;;;;;;;;;;;;;;;;;;5023099;28;19939;-57
2022/01/20 09:09:22;;;;;;;;;;;;;;;;;;5022589;28;20000;-57
2022/01/20 09:12:04;;;;;;;;;;;;;;;;;;5023372;28;19975;-54
2022/01/20 09:17:16;;;;;;;;;;;;;;;;;;5039757;28;19991;-56
2022/01/20 09:19:42;;;;;;;;;;;;;;;;;;5039835;28;19977;-57
2022/01/20 09:22:07;;;;;;;;;;;;;;;;;;5034219;28;20059;-56
2022/01/20 09:24:33;;;;;;;;;;;;;;;;;;5034782;28;20554;-57
2022/01/20 09:26:58;;;;;;;;;;;;;;;;;;5028629;28;19921;-58
2022/01/20 09:29:24;;;;;;;;;;;;;;;;;;5026947;28;20060;-57
2022/01/20 09:31:51;;;;;;;;;;;;;;;;;;5024462;28;20019;-57
2022/01/20 09:34:16;;;;;;;;;;;;;;;;;;5022464;28;20021;-56
2022/01/20 09:36:42;;;;;;;;;;;;;;;;;;5021953;28;20000;-56
2022/01/20 09:39:07;;;;;;;;;;;;;;;;;;5021796;28;19933;-57
2022/01/20 09:41:33;;;;;;;;;;;;;;;;;;5019421;28;19918;-55
2022/01/20 09:43:58;;;;;;;;;;;;;;;;;;5018007;28;19925;-58
2022/01/20 09:46:25;;;;;;;;;;;;;;;;;;5019973;28;19961;-57
2022/01/20 09:48:50;;;;;;;;;;;;;;;;;;5020411;28;19932;-57
2022/01/20 09:51:16;;;;;;;;;;;;;;;;;;5019045;28;19921;-58
2022/01/20 09:53:41;;;;;;;;;;;;;;;;;;5019244;28;19933;-57
2022/01/20 09:56:06;;;;;;;;;;;;;;;;;;5021078;28;20040;-54
2022/01/20 09:58:32;;;;;;;;;;;;;;;;;;5019368;28;20056;-57
2022/01/20 10:00:58;;;;;;;;;;;;;;;;;;5019223;28;19960;-57
2022/01/20 10:03:24;;;;;;;;;;;;;;;;;;5019267;28;19978;-54
2022/01/20 10:05:49;;;;;;;;;;;;;;;;;;5019381;28;20305;-57
2022/01/20 10:08:15;;;;;;;;;;;;;;;;;;5019643;28;20048;-57
2022/01/20 10:10:40;;;;;;;;;;;;;;;;;;5017483;28;20849;-57
2022/01/20 10:13:06;;;;;;;;;;;;;;;;;;5026008;28;19971;-58
2022/01/20 10:15:31;;;;;;;;;;;;;;;;;;5019097;28;19956;-57
2022/01/20 10:17:56;;;;;;;;;;;;;;;;;;5019740;28;19990;-58
2022/01/20 10:20:22;;;;;;;;;;;;;;;;;;5019337;28;19931;-57
2022/01/20 10:22:47;;;;;;;;;;;;;;;;;;5019418;28;19929;-56
2022/01/20 10:25:14;;;;;;;;;;;;;;;;;;5019583;28;19925;-55
2022/01/20 10:27:39;;;;;;;;;;;;;;;;;;5018780;28;20447;-57
2022/01/20 10:30:04;;;;;;;;;;;;;;;;;;5018076;28;19921;-55
2022/01/20 10:32:30;;;;;;;;;;;;;;;;;;5018093;28;19991;-58
2022/01/20 10:34:55;;;;;;;;;;;;;;;;;;5020219;28;19940;-57
2022/01/20 10:37:24;;;;;;;;;;;;;;;;;;5018774;28;20360;-57
2022/01/20 10:39:50;;;;;;;;;;;;;;;;;;5020005;28;20290;-57
2022/01/20 10:42:15;;;;;;;;;;;;;;;;;;5013159;28;19921;-57
2022/01/20 10:44:41;;;;;;;;;;;;;;;;;;5018323;28;19925;-56
2022/01/20 10:47:06;;;;;;;;;;;;;;;;;;5023239;28;19921;-58
2022/01/20 10:49:32;;;;;;;;;;;;;;;;;;5037480;28;19925;-57
2022/01/20 10:51:58;;;;;;;;;;;;;;;;;;5019257;28;19924;-58
2022/01/20 10:54:23;;;;;;;;;;;;;;;;;;5018470;28;20036;-56
2022/01/20 10:56:49;;;;;;;;;;;;;;;;;;5020451;28;20289;-56
2022/01/20 10:59:14;;;;;;;;;;;;;;;;;;5019206;28;20472;-57
2022/01/20 11:01:40;;;;;;;;;;;;;;;;;;5018110;28;19987;-58
2022/01/20 11:04:05;;;;;;;;;;;;;;;;;;5019398;28;19925;-58
2022/01/20 11:06:33;;;;;;;;;;;;;;;;;;5019256;28;20640;-58
2022/01/20 11:08:58;;;;;;;;;;;;;;;;;;5018413;28;19921;-57
2022/01/20 11:11:24;;;;;;;;;;;;;;;;;;5017797;28;19921;-57
2022/01/20 11:13:49;;;;;;;;;;;;;;;;;;5019212;28;19964;-57
2022/01/20 11:16:14;;;;;;;;;;;;;;;;;;5019185;28;22207;-57
2022/01/20 11:18:42;;;;;;;;;;;;;;;;;;5018680;28;19933;-56
2022/01/20 11:21:07;;;;;;;;;;;;;;;;;;5017260;28;19964;-58
2022/01/20 11:23:33;;;;;;;;;;;;;;;;;;5017728;28;19952;-57
2022/01/20 11:25:58;;;;;;;;;;;;;;;;;;5018812;28;19978;-59
2022/01/20 11:28:24;;;;;;;;;;;;;;;;;;5018223;28;19932;-58
2022/01/20 11:30:49;;;;;;;;;;;;;;;;;;5017968;28;19955;-59
2022/01/20 11:33:26;;;;;;;;;;;;;;;;;;5019351;28;19921;-57
2022/01/20 11:35:51;;;;;;;;;;;;;;;;;;5019071;28;19944;-57
2022/01/20 11:38:17;;;;;;;;;;;;;;;;;;5018015;28;19933;-56
2022/01/20 11:40:42;;;;;;;;;;;;;;;;;;5016743;28;19978;-58
2022/01/20 11:43:11;;;;;;;;;;;;;;;;;;5018069;28;20397;-57
2022/01/20 11:45:36;;;;;;;;;;;;;;;;;;5014986;28;19931;-55
2022/01/20 11:48:02;;;;;;;;;;;;;;;;;;5021320;28;19925;-57
2022/01/20 11:50:27;;;;;;;;;;;;;;;;;;5019842;28;19976;-57
2022/01/20 11:52:53;;;;;;;;;;;;;;;;;;5022345;28;19972;-58
2022/01/20 11:55:18;;;;;;;;;;;;;;;;;;5020339;28;19921;-58
2022/01/20 11:57:44;;;;;;;;;;;;;;;;;;5020776;28;19933;-58
2022/01/20 12:00:09;;;;;;;;;;;;;;;;;;5021333;28;19928;-58
2022/01/20 12:02:35;;;;;;;;;;;;;;;;;;5019022;28;19921;-58
2022/01/20 12:05:00;;;;;;;;;;;;;;;;;;5020176;28;19925;-56
2022/01/20 12:07:26;;;;;;;;;;;;;;;;;;5020045;28;19921;-58
2022/01/20 12:09:51;;;;;;;;;;;;;;;;;;5018926;28;20394;-58
2022/01/20 12:12:17;;;;;;;;;;;;;;;;;;5017059;28;19921;-57
2022/01/20 12:14:42;;;;;;;;;;;;;;;;;;5020095;28;20353;-58
2022/01/20 12:17:08;;;;;;;;;;;;;;;;;;5017634;28;19921;-57
2022/01/20 12:19:33;;;;;;;;;;;;;;;;;;5015991;28;19933;-57
2022/01/20 12:21:58;;;;;;;;;;;;;;;;;;5016247;28;20020;-59
2022/01/20 12:24:24;;;;;;;;;;;;;;;;;;5016868;28;19933;-58
2022/01/20 12:26:49;;;;;;;;;;;;;;;;;;5018394;28;19921;-58
2022/01/20 12:29:15;;;;;;;;;;;;;;;;;;5019396;28;19917;-56
2022/01/20 12:31:40;;;;;;;;;;;;;;;;;;5018754;28;19921;-58
2022/01/20 12:34:06;;;;;;;;;;;;;;;;;;5020093;28;19918;-58
2022/01/20 12:36:37;;;;;;;;;;;;;;;;;;5021746;28;19945;-58
2022/01/20 12:39:02;;;;;;;;;;;;;;;;;;5021712;28;19933;-57
2022/01/20 12:41:28;;;;;;;;;;;;;;;;;;5016595;28;19944;-58
2022/01/20 12:43:55;;;;;;;;;;;;;;;;;;5017216;28;19917;-59
2022/01/20 12:46:21;;;;;;;;;;;;;;;;;;5016932;28;19921;-58
2022/01/20 12:48:46;;;;;;;;;;;;;;;;;;5017642;28;20331;-57
2022/01/20 12:51:12;;;;;;;;;;;;;;;;;;5018003;28;19961;-56
2022/01/20 12:53:37;;;;;;;;;;;;;;;;;;5016435;28;19940;-58
2022/01/20 12:56:03;;;;;;;;;;;;;;;;;;5022222;28;19932;-58
2022/01/20 12:58:28;;;;;;;;;;;;;;;;;;5015987;28;19945;-57
2022/01/20 13:00:54;;;;;;;;;;;;;;;;;;5017518;28;19931;-57
2022/01/20 13:03:19;;;;;;;;;;;;;;;;;;5017828;28;19921;-58
2022/01/20 13:05:46;;;;;;;;;;;;;;;;;;5017864;28;19953;-58
2022/01/20 13:08:14;;;;;;;;;;;;;;;;;;5018203;28;19925;-57
2022/01/20 13:10:41;;;;;;;;;;;;;;;;;;5017735;28;19936;-55
2022/01/20 13:13:10;;;;;;;;;;;;;;;;;;5019874;28;20416;-55
2022/01/20 13:15:36;;;;;;;;;;;;;;;;;;5017388;28;19963;-58
2022/01/20 13:18:01;;;;;;;;;;;;;;;;;;5019709;28;19972;-58
2022/01/20 13:20:26;;;;;;;;;;;;;;;;;;5020917;28;19960;-58
2022/01/20 13:22:56;;;;;;;;;;;;;;;;;;5019266;28;19933;-55
2022/01/20 13:25:21;;;;;;;;;;;;;;;;;;5020586;28;19928;-55
2022/01/20 13:27:47;;;;;;;;;;;;;;;;;;5025999;28;20631;-58
2022/01/20 13:30:12;;;;;;;;;;;;;;;;;;5025368;28;20004;-59
2022/01/20 13:32:38;;;;;;;;;;;;;;;;;;5021910;28;19956;-58
2022/01/20 13:35:03;;;;;;;;;;;;;;;;;;5021836;28;20457;-57
2022/01/20 13:37:36;;;;;;;;;;;;;;;;;;5018956;28;20390;-58
2022/01/20 13:40:06;;;;;;;;;;;;;;;;;;5019300;28;20478;-58
2022/01/20 13:45:15;;;;;;;;;;;;;;;;;;5017581;28;20036;-56
2022/01/20 13:47:40;;;;;;;;;;;;;;;;;;5018835;28;20024;-56
2022/01/20 13:50:06;;;;;;;;;;;;;;;;;;5019321;28;20012;-55
2022/01/20 13:52:31;;;;;;;;;;;;;;;;;;5018068;28;19956;-56
2022/01/20 13:54:58;;;;;;;;;;;;;;;;;;5019207;28;20374;-56
2022/01/20 13:57:24;;;;;;;;;;;;;;;;;;5019658;28;19983;-56
2022/01/20 13:59:49;;;;;;;;;;;;;;;;;;5019925;28;19925;-57
2022/01/20 14:02:14;;;;;;;;;;;;;;;;;;5020344;28;20313;-59
2022/01/20 14:04:40;;;;;;;;;;;;;;;;;;5018390;28;20007;-57
2022/01/20 14:07:05;;;;;;;;;;;;;;;;;;5019774;28;19968;-58
2022/01/20 14:09:31;;;;;;;;;;;;;;;;;;5018607;28;19956;-58
2022/01/20 14:11:56;;;;;;;;;;;;;;;;;;5019315;28;20308;-58
2022/01/20 14:14:22;;;;;;;;;;;;;;;;;;5019134;28;19920;-58
2022/01/20 14:16:47;;;;;;;;;;;;;;;;;;5019484;28;20000;-57
2022/01/20 14:19:14;;;;;;;;;;;;;;;;;;5020498;28;19991;-59
2022/01/20 14:21:39;;;;;;;;;;;;;;;;;;5017817;28;19925;-58
2022/01/20 14:24:05;;;;;;;;;;;;;;;;;;5019189;28;19936;-56
2022/01/20 14:26:32;;;;;;;;;;;;;;;;;;5018319;28;19931;-57
2022/01/20 14:28:58;;;;;;;;;;;;;;;;;;5019336;28;19929;-57
2022/01/20 14:31:23;;;;;;;;;;;;;;;;;;5018182;28;19928;-57
2022/01/20 14:33:49;;;;;;;;;;;;;;;;;;5020277;28;19925;-57
2022/01/20 14:36:15;;;;;;;;;;;;;;;;;;5017700;28;20629;-57
2022/01/20 14:38:40;;;;;;;;;;;;;;;;;;5019225;28;20558;-57
2022/01/20 14:41:06;;;;;;;;;;;;;;;;;;5022702;28;19920;-54
2022/01/20 14:43:31;;;;;;;;;;;;;;;;;;5037111;28;20413;-57
2022/01/20 14:45:57;;;;;;;;;;;;;;;;;;5005161;28;19964;-57
2022/01/20 14:48:22;;;;;;;;;;;;;;;;;;4998577;28;19969;-57
2022/01/20 14:50:48;;;;;;;;;;;;;;;;;;4998829;28;19925;-57
2022/01/20 14:53:13;;;;;;;;;;;;;;;;;;4999869;28;21580;-58
2022/01/20 14:55:39;;;;;;;;;;;;;;;;;;5024139;28;20328;-58
2022/01/20 14:58:04;;;;;;;;;;;;;;;;;;5018492;28;19983;-57
2022/01/20 15:00:30;;;;;;;;;;;;;;;;;;5019049;28;19925;-55
2022/01/20 15:02:55;;;;;;;;;;;;;;;;;;5018984;28;20893;-56
2022/01/20 15:05:22;;;;;;;;;;;;;;;;;;5016991;28;19925;-57
2022/01/20 15:07:48;;;;;;;;;;;;;;;;;;5018995;28;19979;-57
2022/01/20 15:10:14;;;;;;;;;;;;;;;;;;5018534;28;20000;-54
2022/01/20 15:12:39;;;;;;;;;;;;;;;;;;5018195;28;19925;-55
2022/01/20 15:15:05;;;;;;;;;;;;;;;;;;5017888;28;19921;-57
2022/01/20 15:17:30;;;;;;;;;;;;;;;;;;5018583;28;19925;-57
2022/01/20 15:19:56;;;;;;;;;;;;;;;;;;5018190;28;19977;-57
2022/01/20 15:22:21;;;;;;;;;;;;;;;;;;5016437;28;19934;-57
2022/01/20 15:24:46;;;;;;;;;;;;;;;;;;5017018;28;20154;-57
2022/01/20 15:27:12;;;;;;;;;;;;;;;;;;5018878;28;20007;-57
2022/01/20 15:29:37;;;;;;;;;;;;;;;;;;5018306;28;19922;-58
2022/01/20 15:32:03;;;;;;;;;;;;;;;;;;5018801;28;19925;-58
2022/01/20 15:34:28;;;;;;;;;;;;;;;;;;5017426;28;19947;-57
2022/01/20 15:36:54;;;;;;;;;;;;;;;;;;5017628;28;19921;-57
2022/01/20 15:39:21;;;;;;;;;;;;;;;;;;5017877;28;19933;-58
2022/01/20 15:41:46;;;;;;;;;;;;;;;;;;5019053;28;20325;-58
2022/01/20 15:44:12;;;;;;;;;;;;;;;;;;5019566;28;19921;-58
2022/01/20 15:46:37;;;;;;;;;;;;;;;;;;5017391;28;19975;-58
2022/01/20 15:49:03;;;;;;;;;;;;;;;;;;5017067;28;20018;-58
2022/01/20 15:51:28;;;;;;;;;;;;;;;;;;5015278;28;19923;-54
2022/01/20 15:53:53;;;;;;;;;;;;;;;;;;5017245;28;19951;-55
2022/01/20 15:56:19;;;;;;;;;;;;;;;;;;5039184;28;19931;-55
2022/01/20 15:58:44;;;;;;;;;;;;;;;;;;4996607;28;19933;-57
2022/01/20 16:01:10;;;;;;;;;;;;;;;;;;4997155;28;20336;-57
2022/01/20 16:03:35;;;;;;;;;;;;;;;;;;4996861;28;19932;-57
2022/01/20 16:06:01;;;;;;;;;;;;;;;;;;4997595;28;19928;-58
2022/01/20 16:08:26;;;;;;;;;;;;;;;;;;4997207;28;20068;-58
2022/01/20 16:10:52;;;;;;;;;;;;;;;;;;4997899;28;20661;-58
2022/01/20 16:13:17;;;;;;;;;;;;;;;;;;4997090;28;20393;-58
2022/01/20 16:15:43;;;;;;;;;;;;;;;;;;4997130;28;20305;-58
2022/01/20 16:18:14;;;;;;;;;;;;;;;;;;4997129;28;19937;-57
2022/01/20 16:20:40;;;;;;;;;;;;;;;;;;4996887;28;19926;-58
2022/01/20 16:23:05;;;;;;;;;;;;;;;;;;4998494;28;19972;-58
2022/01/20 16:25:30;;;;;;;;;;;;;;;;;;4997199;28;19926;-56
2022/01/20 16:27:56;;;;;;;;;;;;;;;;;;4998127;28;19921;-57
2022/01/20 16:30:22;;;;;;;;;;;;;;;;;;4997046;28;19926;-57
2022/01/20 16:32:47;;;;;;;;;;;;;;;;;;4998614;28;20397;-57
2022/01/20 16:35:13;;;;;;;;;;;;;;;;;;4998060;28;19949;-57
2022/01/20 16:37:38;;;;;;;;;;;;;;;;;;4996859;28;19965;-56
2022/01/20 16:40:03;;;;;;;;;;;;;;;;;;4998679;28;20466;-57
2022/01/20 16:42:29;;;;;;;;;;;;;;;;;;4997570;28;19921;-58
2022/01/20 16:44:54;;;;;;;;;;;;;;;;;;4998026;28;19969;-57
2022/01/20 16:47:21;;;;;;;;;;;;;;;;;;4997394;28;19925;-58
2022/01/20 16:49:46;;;;;;;;;;;;;;;;;;4998349;28;20030;-58
2022/01/20 16:52:12;;;;;;;;;;;;;;;;;;4999182;28;19965;-57
2022/01/20 16:54:37;;;;;;;;;;;;;;;;;;4999657;28;21871;-58
2022/01/20 16:57:02;;;;;;;;;;;;;;;;;;5002011;28;19943;-58
2022/01/20 16:59:28;;;;;;;;;;;;;;;;;;4998935;28;20012;-58
2022/01/20 17:01:53;;;;;;;;;;;;;;;;;;5000778;28;19992;-58
2022/01/20 17:04:19;;;;;;;;;;;;;;;;;;5000547;28;19969;-58
2022/01/20 17:06:44;;;;;;;;;;;;;;;;;;5001669;28;19918;-57
2022/01/20 17:09:10;;;;;;;;;;;;;;;;;;5004242;28;20043;-58
2022/01/20 17:11:35;;;;;;;;;;;;;;;;;;5000080;28;19972;-58
2022/01/20 17:14:01;;;;;;;;;;;;;;;;;;5000571;28;19921;-57
2022/01/20 17:16:26;;;;;;;;;;;;;;;;;;4999900;28;19921;-58
2022/01/20 17:18:52;;;;;;;;;;;;;;;;;;5000864;28;19940;-57
2022/01/20 17:21:17;;;;;;;;;;;;;;;;;;4998999;28;20051;-57
2022/01/20 17:23:43;;;;;;;;;;;;;;;;;;5001195;28;19933;-57
2022/01/20 17:26:08;;;;;;;;;;;;;;;;;;5001255;28;19922;-55
2022/01/20 17:28:34;;;;;;;;;;;;;;;;;;5001448;28;20867;-57
2022/01/20 17:30:59;;;;;;;;;;;;;;;;;;5000021;28;19925;-57
2022/01/20 17:33:25;;;;;;;;;;;;;;;;;;4999893;28;19933;-57
2022/01/20 17:35:50;;;;;;;;;;;;;;;;;;4999970;28;20298;-57
2022/01/20 17:38:15;;;;;;;;;;;;;;;;;;5000658;28;19937;-58